createdAt,value
2018-08-25T00:00:13.729Z,100622.44
2018-08-25T00:02:42.045Z,100616.88
2018-08-25T00:05:10.273Z,100612.34
2018-08-25T00:07:38.522Z,100608.33
2018-08-25T00:10:07.861Z,100600.63
2018-08-25T00:12:36.070Z,100593.95
2018-08-25T00:15:04.441Z,100603.31
2018-08-25T00:17:32.681Z,100594.48
2018-08-25T00:20:00.921Z,100592.70
2018-08-25T00:22:29.141Z,100585.00
2018-08-25T00:24:57.345Z,100576.27
2018-08-25T00:27:25.569Z,100581.44
2018-08-25T00:29:53.813Z,100577.93
2018-08-25T00:32:22.073Z,100570.98
2018-08-25T00:34:50.321Z,100569.67
2018-08-25T00:37:18.517Z,100570.68
2018-08-25T00:39:46.761Z,100560.02
2018-08-25T00:42:15.076Z,100561.02
2018-08-25T00:44:43.386Z,100557.52
2018-08-25T00:47:11.637Z,100554.16
2018-08-25T00:49:39.865Z,100553.13
2018-08-25T00:52:08.107Z,100548.28
2018-08-25T00:54:36.449Z,100550.78
2018-08-25T00:57:04.717Z,100546.11
2018-08-25T00:59:32.946Z,100541.66
2018-08-25T01:02:01.176Z,100534.62
2018-08-25T01:04:29.396Z,100541.30
2018-08-25T01:06:57.745Z,100541.23
2018-08-25T01:09:26.016Z,100529.47
2018-08-25T01:11:54.229Z,100533.77
2018-08-25T01:14:22.441Z,100531.20
2018-08-25T01:16:50.645Z,100522.84
2018-08-25T01:19:18.897Z,100517.11
2018-08-25T01:21:47.170Z,100510.75
2018-08-25T01:24:15.450Z,100515.05
2018-08-25T01:26:43.669Z,100513.72
2018-08-25T01:29:11.869Z,100521.05
2018-08-25T01:31:40.123Z,100516.72
2018-08-25T01:34:08.390Z,100509.70
2018-08-25T01:36:36.671Z,100497.67
2018-08-25T01:39:07.633Z,100504.86
2018-08-25T01:41:35.885Z,100497.81
2018-08-25T01:44:04.114Z,100489.00
2018-08-25T01:46:32.318Z,100480.80
2018-08-25T01:49:00.574Z,100466.41
2018-08-25T01:51:28.817Z,100471.76
2018-08-25T01:53:57.100Z,100462.72
2018-08-25T01:56:25.309Z,100464.75
2018-08-25T01:58:53.562Z,100459.77
2018-08-25T02:01:21.879Z,100456.51
2018-08-25T02:03:50.175Z,100446.97
2018-08-25T02:06:18.401Z,100447.59
2018-08-25T02:08:46.594Z,100443.06
2018-08-25T02:11:14.822Z,100442.23
2018-08-25T02:13:43.050Z,100431.87
2018-08-25T02:16:11.337Z,100439.16
2018-08-25T02:18:39.550Z,100424.09
2018-08-25T02:21:07.755Z,100423.39
2018-08-25T02:23:35.973Z,100416.02
2018-08-25T02:26:04.274Z,100420.58
2018-08-25T02:28:32.574Z,100421.09
2018-08-25T02:31:00.784Z,100420.05
2018-08-25T02:33:28.989Z,100412.61
2018-08-25T02:35:57.207Z,100417.16
2018-08-25T02:38:25.455Z,100406.61
2018-08-25T02:40:53.741Z,100408.12
2018-08-25T02:43:21.974Z,100403.94
2018-08-25T02:45:50.190Z,100420.95
2018-08-25T02:48:18.400Z,100415.00
2018-08-25T02:50:46.625Z,100409.90
2018-08-25T02:53:14.862Z,100414.78
2018-08-25T02:55:43.086Z,100407.12
2018-08-25T02:58:11.394Z,100413.41
2018-08-25T03:00:39.610Z,100411.09
2018-08-25T03:03:07.965Z,100414.41
2018-08-25T03:05:36.192Z,100415.63
2018-08-25T03:08:04.449Z,100410.38
2018-08-25T03:10:32.667Z,100409.77
2018-08-25T03:13:00.897Z,100418.52
2018-08-25T03:15:29.124Z,100427.63
2018-08-25T03:17:57.364Z,100422.48
2018-08-25T03:20:25.550Z,100414.59
2018-08-25T03:22:53.786Z,100429.50
2018-08-25T03:25:22.045Z,100427.18
2018-08-25T03:27:50.261Z,100423.87
2018-08-25T03:30:18.508Z,100418.97
2018-08-25T03:32:46.736Z,100419.14
2018-08-25T03:35:14.950Z,100410.84
2018-08-25T03:37:43.165Z,100409.85
2018-08-25T03:40:11.392Z,100412.39
2018-08-25T03:42:39.638Z,100405.24
2018-08-25T03:45:07.994Z,100399.42
2018-08-25T03:47:36.258Z,100404.25
2018-08-25T03:50:04.569Z,100397.63
2018-08-25T03:52:32.930Z,100402.47
2018-08-25T03:55:01.189Z,100397.47
2018-08-25T03:57:29.418Z,100395.92
2018-08-25T03:59:57.625Z,100394.80
2018-08-25T04:02:25.826Z,100394.42
2018-08-25T04:04:54.086Z,100387.30
2018-08-25T04:07:22.294Z,100387.31
2018-08-25T04:09:50.499Z,100385.64
2018-08-25T04:12:18.729Z,100383.98
2018-08-25T04:14:46.968Z,100374.04
2018-08-25T04:17:15.171Z,100380.22
2018-08-25T04:19:43.388Z,100387.72
2018-08-25T04:22:11.640Z,100391.42
2018-08-25T04:24:39.864Z,100390.43
2018-08-25T04:27:08.062Z,100393.75
2018-08-25T04:29:36.285Z,100403.25
2018-08-25T04:32:04.625Z,100404.25
2018-08-25T04:34:32.963Z,100405.25
2018-08-25T04:37:01.172Z,100407.78
2018-08-25T04:39:29.389Z,100411.62
2018-08-25T04:41:57.599Z,100412.12
2018-08-25T04:44:25.801Z,100411.28
2018-08-25T04:46:54.025Z,100415.11
2018-08-25T04:49:22.241Z,100420.59
2018-08-25T04:51:50.648Z,100419.13
2018-08-25T04:54:18.929Z,100420.79
2018-08-25T04:56:47.194Z,100419.46
2018-08-25T04:59:15.397Z,100425.09
2018-08-25T05:01:43.663Z,100428.95
2018-08-25T05:04:11.929Z,100436.75
2018-08-25T05:06:40.147Z,100442.42
2018-08-25T05:09:09.650Z,100439.92
2018-08-25T05:11:37.868Z,100446.22
2018-08-25T05:14:06.146Z,100446.87
2018-08-25T05:16:34.385Z,100440.05
2018-08-25T05:19:02.601Z,100448.05
2018-08-25T05:21:30.825Z,100447.05
2018-08-25T05:23:59.119Z,100444.39
2018-08-25T05:26:27.336Z,100451.86
2018-08-25T05:28:55.562Z,100446.02
2018-08-25T05:31:23.802Z,100451.70
2018-08-25T05:33:52.149Z,100459.02
2018-08-25T05:36:20.439Z,100451.20
2018-08-25T05:38:48.674Z,100452.02
2018-08-25T05:41:16.884Z,100450.57
2018-08-25T05:43:45.107Z,100459.70
2018-08-25T05:46:13.532Z,100454.03
2018-08-25T05:48:41.878Z,100459.69
2018-08-25T05:51:10.086Z,100464.67
2018-08-25T05:53:38.484Z,100466.00
2018-08-25T05:56:06.953Z,100470.19
2018-08-25T05:58:35.230Z,100478.31
2018-08-25T06:01:03.680Z,100474.84
2018-08-25T06:03:31.905Z,100484.83
2018-08-25T06:06:00.114Z,100485.97
2018-08-25T06:08:28.401Z,100483.02
2018-08-25T06:10:56.628Z,100472.36
2018-08-25T06:13:25.324Z,100476.84
2018-08-25T06:15:53.591Z,100482.84
2018-08-25T06:18:21.869Z,100495.97
2018-08-25T06:20:50.125Z,100496.62
2018-08-25T06:23:18.370Z,100502.28
2018-08-25T06:25:46.706Z,100495.97
2018-08-25T06:28:14.942Z,100497.30
2018-08-25T06:30:43.472Z,100493.95
2018-08-25T06:33:11.701Z,100498.95
2018-08-25T06:35:39.970Z,100504.28
2018-08-25T06:38:08.361Z,100510.95
2018-08-25T06:40:36.597Z,100502.11
2018-08-25T06:43:04.929Z,100508.59
2018-08-25T06:45:33.153Z,100517.41
2018-08-25T06:48:01.423Z,100517.23
2018-08-25T06:50:29.622Z,100529.25
2018-08-25T06:52:57.840Z,100529.27
2018-08-25T06:55:26.082Z,100523.57
2018-08-25T06:57:54.369Z,100528.22
2018-08-25T07:00:22.874Z,100538.72
2018-08-25T07:02:51.166Z,100537.05
2018-08-25T07:05:20.050Z,100535.20
2018-08-25T07:07:48.762Z,100532.87
2018-08-25T07:10:16.985Z,100530.58
2018-08-25T07:12:45.209Z,100544.90
2018-08-25T07:15:13.419Z,100522.91
2018-08-25T07:17:41.653Z,100541.24
2018-08-25T07:20:09.898Z,100545.20
2018-08-25T07:22:38.255Z,100533.38
2018-08-25T07:25:06.857Z,100539.88
2018-08-25T07:27:35.089Z,100550.36
2018-08-25T07:30:03.603Z,100550.54
2018-08-25T07:32:31.891Z,100557.88
2018-08-25T07:35:00.126Z,100545.23
2018-08-25T07:37:28.350Z,100564.13
2018-08-25T07:39:56.593Z,100568.22
2018-08-25T07:42:25.038Z,100576.33
2018-08-25T07:44:53.522Z,100559.70
2018-08-25T07:47:21.821Z,100560.70
2018-08-25T07:49:50.055Z,100585.95
2018-08-25T07:52:18.295Z,100550.08
2018-08-25T07:54:46.510Z,100563.11
2018-08-25T07:57:14.866Z,100566.44
2018-08-25T07:59:43.245Z,100563.13
2018-08-25T08:02:11.501Z,100558.95
2018-08-25T08:04:39.698Z,100565.76
2018-08-25T08:07:08.002Z,100585.04
2018-08-25T08:09:36.206Z,100573.05
2018-08-25T08:12:04.661Z,100577.72
2018-08-25T08:14:32.941Z,100559.77
2018-08-25T08:17:01.298Z,100566.93
2018-08-25T08:19:29.798Z,100562.45
2018-08-25T08:21:58.065Z,100586.73
2018-08-25T08:24:26.349Z,100597.19
2018-08-25T08:26:54.589Z,100589.87
2018-08-25T08:29:22.794Z,100573.77
2018-08-25T08:31:51.025Z,100587.94
2018-08-25T08:34:19.249Z,100594.12
2018-08-25T08:36:47.458Z,100590.46
2018-08-25T08:39:15.682Z,100605.80
2018-08-25T08:41:43.885Z,100598.67
2018-08-25T08:44:12.166Z,100609.46
2018-08-25T08:46:40.396Z,100617.11
2018-08-25T08:49:09.018Z,100606.47
2018-08-25T08:51:38.009Z,100604.98
2018-08-25T08:54:06.292Z,100606.50
2018-08-25T08:56:34.511Z,100599.53
2018-08-25T08:59:02.852Z,100599.22
2018-08-25T09:01:31.809Z,100609.56
2018-08-25T09:04:00.081Z,100606.06
2018-08-25T09:06:28.479Z,100608.23
2018-08-25T09:08:56.746Z,100610.23
2018-08-25T09:11:24.985Z,100610.08
2018-08-25T09:13:53.242Z,100622.59
2018-08-25T09:16:21.933Z,100632.73
2018-08-25T09:18:50.461Z,100633.74
2018-08-25T09:21:19.234Z,100633.06
2018-08-25T09:23:47.438Z,100627.75
2018-08-25T09:26:15.678Z,100627.23
2018-08-25T09:28:43.958Z,100629.23
2018-08-25T09:31:12.166Z,100638.41
2018-08-25T09:33:40.431Z,100636.58
2018-08-25T09:36:08.681Z,100655.58
2018-08-25T09:38:36.865Z,100653.56
2018-08-25T09:41:05.213Z,100641.91
2018-08-25T09:43:33.517Z,100630.23
2018-08-25T09:46:01.737Z,100642.23
2018-08-25T09:48:29.953Z,100638.55
2018-08-25T09:50:58.162Z,100635.73
2018-08-25T09:53:26.433Z,100643.22
2018-08-25T09:55:54.673Z,100660.56
2018-08-25T09:58:22.926Z,100654.20
2018-08-25T10:00:56.497Z,100643.87
2018-08-25T10:03:24.732Z,100655.05
2018-08-25T10:05:52.962Z,100652.52
2018-08-25T10:08:21.310Z,100647.88
2018-08-25T10:10:49.569Z,100656.34
2018-08-25T10:13:17.811Z,100639.45
2018-08-25T10:15:46.014Z,100652.12
2018-08-25T10:18:14.333Z,100647.79
2018-08-25T10:20:48.964Z,100657.13
2018-08-25T10:23:17.199Z,100661.84
2018-08-25T10:25:45.386Z,100692.90
2018-08-25T10:28:13.626Z,100659.71
2018-08-25T10:30:41.882Z,100670.72
2018-08-25T10:33:10.129Z,100660.47
2018-08-25T10:35:38.388Z,100670.93
2018-08-25T10:38:07.065Z,100667.96
2018-08-25T10:40:35.358Z,100652.96
2018-08-25T10:43:03.607Z,100663.46
2018-08-25T10:45:31.834Z,100658.48
2018-08-25T10:48:00.116Z,100672.23
2018-08-25T10:50:28.294Z,100672.58
2018-08-25T10:52:56.548Z,100661.20
2018-08-25T10:55:24.846Z,100661.86
2018-08-25T10:57:53.077Z,100668.16
2018-08-25T11:00:21.483Z,100669.47
2018-08-25T11:02:49.670Z,100663.30
2018-08-25T11:05:18.203Z,100664.86
2018-08-25T11:07:46.476Z,100678.30
2018-08-25T11:10:14.704Z,100679.70
2018-08-25T11:12:42.918Z,100684.38
2018-08-25T11:15:11.326Z,100672.05
2018-08-25T11:17:39.533Z,100666.61
2018-08-25T11:20:07.927Z,100661.33
2018-08-25T11:22:36.208Z,100667.37
2018-08-25T11:25:04.510Z,100667.41
2018-08-25T11:27:33.079Z,100676.14
2018-08-25T11:30:01.365Z,100681.26
2018-08-25T11:32:29.654Z,100689.22
2018-08-25T11:34:57.878Z,100692.00
2018-08-25T11:37:26.216Z,100694.56
2018-08-25T11:39:54.362Z,100694.22
2018-08-25T11:42:22.709Z,100683.88
2018-08-25T11:44:50.956Z,100683.71
2018-08-25T11:47:19.437Z,100689.23
2018-08-25T11:49:48.001Z,100690.16
2018-08-25T11:52:16.226Z,100683.00
2018-08-25T11:54:44.807Z,100687.58
2018-08-25T11:57:13.110Z,100684.86
2018-08-25T11:59:41.420Z,100674.50
2018-08-25T12:02:09.834Z,100673.84
2018-08-25T12:04:38.031Z,100673.52
2018-08-25T12:07:06.437Z,100672.89
2018-08-25T12:09:34.753Z,100682.59
2018-08-25T12:12:02.950Z,100684.59
2018-08-25T12:14:31.235Z,100685.59
2018-08-25T12:16:59.582Z,100690.94
2018-08-25T12:19:27.822Z,100683.97
2018-08-25T12:21:56.056Z,100682.63
2018-08-25T12:24:24.314Z,100679.91
2018-08-25T12:26:54.209Z,100682.91
2018-08-25T12:29:22.524Z,100690.72
2018-08-25T12:31:50.739Z,100681.56
2018-08-25T12:34:18.974Z,100691.54
2018-08-25T12:36:47.198Z,100699.11
2018-08-25T12:39:15.512Z,100716.95
2018-08-25T12:41:43.732Z,100717.40
2018-08-25T12:44:12.000Z,100721.34
2018-08-25T12:46:40.214Z,100738.75
2018-08-25T12:49:08.522Z,100752.86
2018-08-25T12:51:36.787Z,100761.09
2018-08-25T12:54:05.179Z,100758.23
2018-08-25T12:56:33.574Z,100748.38
2018-08-25T12:59:01.895Z,100742.03
2018-08-25T13:01:30.141Z,100743.36
2018-08-25T13:03:58.332Z,100741.70
2018-08-25T13:06:26.642Z,100743.23
2018-08-25T13:08:54.847Z,100739.18
2018-08-25T13:11:23.079Z,100743.70
2018-08-25T13:13:51.281Z,100729.70
2018-08-25T13:16:19.529Z,100737.12
2018-08-25T13:18:47.820Z,100737.50
2018-08-25T13:21:16.006Z,100731.89
2018-08-25T13:23:44.287Z,100745.92
2018-08-25T13:26:12.526Z,100740.60
2018-08-25T13:28:40.785Z,100740.66
2018-08-25T13:31:10.296Z,100727.95
2018-08-25T13:33:38.455Z,100734.84
2018-08-25T13:36:06.645Z,100731.37
2018-08-25T13:38:34.926Z,100734.81
2018-08-25T13:41:03.190Z,100737.93
2018-08-25T13:43:31.413Z,100733.15
2018-08-25T13:45:59.641Z,100792.09
2018-08-25T13:48:27.871Z,100763.00
2018-08-25T13:50:56.155Z,100761.34
2018-08-25T13:53:24.331Z,100780.55
2018-08-25T13:55:59.094Z,100779.29
2018-08-25T13:58:27.394Z,100790.83
2018-08-25T14:00:55.625Z,100779.75
2018-08-25T14:03:23.870Z,100780.16
2018-08-25T14:05:52.169Z,100774.35
2018-08-25T14:08:20.686Z,100775.55
2018-08-25T14:10:48.715Z,100777.89
2018-08-25T14:13:16.945Z,100789.56
2018-08-25T14:15:45.170Z,100788.27
2018-08-25T14:18:13.438Z,100776.25
2018-08-25T14:20:41.697Z,100784.76
2018-08-25T14:23:09.926Z,100779.92
2018-08-25T14:25:38.194Z,100782.89
2018-08-25T14:28:06.936Z,100784.95
2018-08-25T14:30:35.158Z,100779.98
2018-08-25T14:33:03.539Z,100779.82
2018-08-25T14:35:31.882Z,100777.23
2018-08-25T14:38:00.185Z,100780.80
2018-08-25T14:40:28.394Z,100793.06
2018-08-25T14:42:56.606Z,100777.53
2018-08-25T14:45:24.866Z,100776.97
2018-08-25T14:47:53.138Z,100780.63
2018-08-25T14:50:21.890Z,100777.57
2018-08-25T14:52:50.119Z,100799.70
2018-08-25T14:55:18.423Z,100800.47
2018-08-25T14:57:46.626Z,100797.84
2018-08-25T15:00:14.898Z,100805.39
2018-08-25T15:02:43.206Z,100810.23
2018-08-25T15:05:11.590Z,100812.59
2018-08-25T15:07:39.812Z,100810.61
2018-08-25T15:10:08.074Z,100822.62
2018-08-25T15:12:36.322Z,100821.64
2018-08-25T15:15:04.857Z,100816.28
2018-08-25T15:17:33.102Z,100835.30
2018-08-25T15:20:01.305Z,100837.94
2018-08-25T15:22:29.633Z,100833.24
2018-08-25T15:24:57.927Z,100845.21
2018-08-25T15:27:26.216Z,100844.31
2018-08-25T15:29:54.711Z,100834.12
2018-08-25T15:32:22.943Z,100839.14
2018-08-25T15:34:51.160Z,100851.17
2018-08-25T15:37:19.391Z,100850.67
2018-08-25T15:39:47.661Z,100853.51
2018-08-25T15:42:15.943Z,100849.27
2018-08-25T15:44:44.204Z,100846.17
2018-08-25T15:47:12.541Z,100855.94
2018-08-25T15:49:40.933Z,100852.20
2018-08-25T15:52:09.691Z,100852.69
2018-08-25T15:54:37.881Z,100853.87
2018-08-25T15:57:06.159Z,100852.88
2018-08-25T15:59:34.593Z,100856.10
2018-08-25T16:02:02.869Z,100853.80
2018-08-25T16:04:31.096Z,100849.55
2018-08-25T16:06:59.398Z,100858.03
2018-08-25T16:09:27.634Z,100851.67
2018-08-25T16:11:55.990Z,100855.97
2018-08-25T16:14:24.138Z,100866.12
2018-08-25T16:16:52.405Z,100868.17
2018-08-25T16:19:20.782Z,100858.04
2018-08-25T16:21:48.993Z,100868.70
2018-08-25T16:24:17.205Z,100868.89
2018-08-25T16:26:45.446Z,100867.85
2018-08-25T16:29:13.751Z,100875.19
2018-08-25T16:31:42.010Z,100878.84
2018-08-25T16:34:10.226Z,100872.17
2018-08-25T16:36:38.451Z,100878.86
2018-08-25T16:39:06.812Z,100882.37
2018-08-25T16:41:35.057Z,100879.44
2018-08-25T16:44:03.491Z,100875.39
2018-08-25T16:46:31.794Z,100888.14
2018-08-25T16:49:00.061Z,100873.95
2018-08-25T16:51:28.549Z,100869.86
2018-08-25T16:53:56.762Z,100869.08
2018-08-25T16:56:25.035Z,100868.57
2018-08-25T16:58:53.337Z,100876.67
2018-08-25T17:01:21.618Z,100869.20
2018-08-25T17:03:49.828Z,100878.50
2018-08-25T17:06:18.032Z,100880.82
2018-08-25T17:08:46.421Z,100872.46
2018-08-25T17:11:14.712Z,100876.61
2018-08-25T17:13:43.420Z,100873.19
2018-08-25T17:16:11.776Z,100877.51
2018-08-25T17:18:40.085Z,100885.22
2018-08-25T17:21:08.430Z,100898.98
2018-08-25T17:23:36.677Z,100893.30
2018-08-25T17:26:05.126Z,100899.93
2018-08-25T17:28:33.364Z,100897.84
2018-08-25T17:31:01.802Z,100906.28
2018-08-25T17:33:30.017Z,100900.83
2018-08-25T17:35:58.466Z,100911.20
2018-08-25T17:38:26.901Z,100916.73
2018-08-25T17:40:55.258Z,100914.27
2018-08-25T17:43:23.515Z,100918.95
2018-08-25T17:45:51.733Z,100923.34
2018-08-25T17:48:20.026Z,100922.84
2018-08-25T17:50:48.302Z,100919.20
2018-08-25T17:53:16.601Z,100926.72
2018-08-25T17:55:44.845Z,100930.06
2018-08-25T17:58:13.065Z,100930.59
2018-08-25T18:00:41.302Z,100928.92
2018-08-25T18:03:09.574Z,100939.41
2018-08-25T18:05:37.825Z,100935.23
2018-08-25T18:08:06.103Z,100941.91
2018-08-25T18:10:34.330Z,100944.11
2018-08-25T18:13:02.570Z,100945.77
2018-08-25T18:15:30.862Z,100949.11
2018-08-25T18:17:59.226Z,100954.11
2018-08-25T18:20:27.429Z,100962.13
2018-08-25T18:22:55.697Z,100960.95
2018-08-25T18:25:23.962Z,100962.63
2018-08-25T18:27:52.185Z,100964.30
2018-08-25T18:30:20.554Z,100966.47
2018-08-25T18:32:48.766Z,100965.47
2018-08-25T18:35:17.046Z,100976.48
2018-08-25T18:37:45.695Z,100973.80
2018-08-25T18:40:14.028Z,100978.51
2018-08-25T18:42:42.437Z,100988.86
2018-08-25T18:45:10.716Z,100988.67
2018-08-25T18:47:39.332Z,100988.84
2018-08-25T18:50:07.588Z,100991.84
2018-08-25T18:52:35.849Z,100995.67
2018-08-25T18:55:04.159Z,100999.70
2018-08-25T18:57:32.341Z,101006.36
2018-08-25T19:00:00.567Z,101008.85
2018-08-25T19:02:28.838Z,101014.52
2018-08-25T19:04:57.012Z,101016.52
2018-08-25T19:07:25.300Z,101018.88
2018-08-25T19:09:53.609Z,101015.72
2018-08-25T19:12:21.822Z,101026.22
2018-08-25T19:14:50.048Z,101022.55
2018-08-25T19:17:18.318Z,101034.25
2018-08-25T19:19:46.614Z,101036.58
2018-08-25T19:22:15.138Z,101033.23
2018-08-25T19:24:43.368Z,101037.73
2018-08-25T19:27:11.635Z,101032.90
2018-08-25T19:29:39.909Z,101038.56
2018-08-25T19:32:08.523Z,101037.05
2018-08-25T19:34:36.771Z,101034.88
2018-08-25T19:37:05.237Z,101037.20
2018-08-25T19:39:33.491Z,101040.04
2018-08-25T19:42:01.728Z,101047.03
2018-08-25T19:44:30.043Z,101045.55
2018-08-25T19:46:58.586Z,101045.38
2018-08-25T19:49:26.793Z,101054.53
2018-08-25T19:51:55.099Z,101055.69
2018-08-25T19:54:23.303Z,101051.01
2018-08-25T19:56:51.976Z,101062.34
2018-08-25T19:59:20.218Z,101067.34
2018-08-25T20:01:48.458Z,101068.87
2018-08-25T20:04:16.787Z,101066.70
2018-08-25T20:06:45.047Z,101076.03
2018-08-25T20:09:13.374Z,101075.20
2018-08-25T20:11:41.521Z,101069.19
2018-08-25T20:14:09.765Z,101076.17
2018-08-25T20:16:37.988Z,101077.16
2018-08-25T20:19:06.337Z,101085.52
2018-08-25T20:21:34.596Z,101088.99
2018-08-25T20:24:02.828Z,101089.48
2018-08-25T20:26:31.047Z,101084.47
2018-08-25T20:28:59.261Z,101092.13
2018-08-25T20:31:27.473Z,101089.16
2018-08-25T20:33:55.734Z,101094.49
2018-08-25T20:36:24.038Z,101096.82
2018-08-25T20:38:52.274Z,101091.98
2018-08-25T20:41:20.541Z,101099.48
2018-08-25T20:43:48.777Z,101098.31
2018-08-25T20:46:17.010Z,101109.14
2018-08-25T20:48:45.221Z,101110.45
2018-08-25T20:51:13.501Z,101107.38
2018-08-25T20:53:41.709Z,101118.05
2018-08-25T20:56:09.936Z,101112.83
2018-08-25T20:58:38.155Z,101113.30
2018-08-25T21:01:06.498Z,101111.28
2018-08-25T21:03:34.793Z,101109.45
2018-08-25T21:06:03.005Z,101112.92
2018-08-25T21:08:31.230Z,101111.39
2018-08-25T21:10:59.478Z,101111.02
2018-08-25T21:13:27.686Z,101107.84
2018-08-25T21:15:56.037Z,101102.82
2018-08-25T21:18:30.529Z,101109.15
2018-08-25T21:20:58.760Z,101103.78
2018-08-25T21:23:27.008Z,101108.42
2018-08-25T21:25:55.267Z,101108.77
2018-08-25T21:28:23.492Z,101121.06
2018-08-25T21:30:51.737Z,101120.18
2018-08-25T21:33:19.925Z,101123.98
2018-08-25T21:35:48.197Z,101129.81
2018-08-25T21:38:16.497Z,101126.80
2018-08-25T21:40:44.761Z,101129.96
2018-08-25T21:43:12.961Z,101125.63
2018-08-25T21:45:41.197Z,101125.77
2018-08-25T21:48:09.501Z,101121.61
2018-08-25T21:50:37.797Z,101128.28
2018-08-25T21:53:06.054Z,101129.41
2018-08-25T21:55:34.262Z,101121.37
2018-08-25T21:58:02.499Z,101119.70
2018-08-25T22:00:30.766Z,101120.88
2018-08-25T22:02:59.034Z,101125.88
2018-08-25T22:05:27.247Z,101124.84
2018-08-25T22:07:55.451Z,101129.33
2018-08-25T22:10:23.680Z,101127.16
2018-08-25T22:12:51.905Z,101125.48
2018-08-25T22:15:20.134Z,101127.48
2018-08-25T22:17:48.340Z,101132.13
2018-08-25T22:20:16.614Z,101126.45
2018-08-25T22:22:44.903Z,101129.77
2018-08-25T22:25:13.181Z,101125.08
2018-08-25T22:27:41.440Z,101126.36
2018-08-25T22:30:09.714Z,101128.34
2018-08-25T22:32:37.914Z,101130.66
2018-08-25T22:35:06.161Z,101131.00
2018-08-25T22:37:34.402Z,101137.61
2018-08-25T22:40:03.570Z,101141.56
2018-08-25T22:42:31.780Z,101135.55
2018-08-25T22:44:59.995Z,101138.06
2018-08-25T22:47:28.217Z,101130.56
2018-08-25T22:49:56.484Z,101134.55
2018-08-25T22:52:30.151Z,101137.36
2018-08-25T22:54:58.382Z,101142.55
2018-08-25T22:57:26.581Z,101135.84
2018-08-25T22:59:54.817Z,101141.80
2018-08-25T23:02:23.047Z,101139.81
2018-08-25T23:04:51.272Z,101134.63
2018-08-25T23:07:19.478Z,101138.43
2018-08-25T23:09:47.709Z,101143.06
2018-08-25T23:12:15.993Z,101143.70
2018-08-25T23:14:44.212Z,101141.68
2018-08-25T23:17:12.503Z,101147.64
2018-08-25T23:19:40.679Z,101141.63
2018-08-25T23:22:08.882Z,101148.61
2018-08-25T23:24:37.097Z,101155.06
2018-08-25T23:27:05.433Z,101155.55
2018-08-25T23:29:33.625Z,101152.55
2018-08-25T23:32:01.882Z,101152.20
2018-08-25T23:34:30.127Z,101158.86
2018-08-25T23:36:58.346Z,101155.50
2018-08-25T23:39:26.560Z,101159.14
2018-08-25T23:41:54.806Z,101157.12
2018-08-25T23:44:23.021Z,101159.09
2018-08-25T23:46:51.230Z,101162.08
2018-08-25T23:49:19.507Z,101165.86
2018-08-25T23:51:47.706Z,101163.00
2018-08-25T23:54:15.949Z,101164.62
2018-08-25T23:56:44.324Z,101167.08
2018-08-25T23:59:12.561Z,101165.22
